Time;durP1;ratioP1;P1;durP2;ratioP2;P2;SDS_P1;SDS_P2;PMS_P1;PMS_P2;Temp;Humidity;BMP_temperature;BMP_pressure;BME280_temperature;BME280_humidity;BME280_pressure;Samples;Min_cycle;Max_cycle;Signal;HPM_P1;HPM_P2
2022/10/29 00:01:29;;;;;;;7.50;5.00;;;16.30;99.90;;;;;;5115493;28;20173;-75
2022/10/29 00:03:55;;;;;;;10.00;6.57;;;16.10;99.90;;;;;;5115274;28;20167;-74
2022/10/29 00:06:20;;;;;;;12.10;6.00;;;16.00;99.90;;;;;;5115307;28;20164;-73
2022/10/29 00:08:46;;;;;;;8.50;4.63;;;16.00;99.90;;;;;;5100521;28;20172;-74
2022/10/29 00:11:18;;;;;;;10.10;4.80;;;16.00;99.90;;;;;;5105778;28;20633;-72
2022/10/29 00:13:45;;;;;;;8.70;5.43;;;16.10;99.90;;;;;;5115339;28;20236;-73
2022/10/29 00:16:11;;;;;;;9.70;4.60;;;16.10;99.90;;;;;;5114916;28;20450;-74
2022/10/29 00:18:37;;;;;;;14.10;5.40;;;16.00;99.90;;;;;;5114868;28;20538;-73
2022/10/29 00:21:05;;;;;;;15.20;6.17;;;15.80;99.90;;;;;;5114824;28;20410;-73
2022/10/29 00:23:30;;;;;;;10.30;5.30;;;15.70;99.90;;;;;;5115180;28;20214;-73
2022/10/29 00:25:57;;;;;;;15.00;5.97;;;15.70;99.90;;;;;;5114602;28;20888;-74
2022/10/29 00:28:23;;;;;;;11.17;5.83;;;15.70;99.90;;;;;;5114618;28;20183;-73
2022/10/29 00:30:49;;;;;;;9.87;4.70;;;15.70;99.90;;;;;;5114541;28;20453;-73
2022/10/29 00:33:17;;;;;;;10.53;6.00;;;15.60;99.90;;;;;;5114794;28;20545;-73
2022/10/29 00:35:52;;;;;;;15.43;5.50;;;15.70;99.90;;;;;;5114489;28;20187;-73
2022/10/29 00:38:18;;;;;;;10.33;4.50;;;15.60;99.90;;;;;;5114435;28;20534;-74
2022/10/29 00:40:44;;;;;;;12.60;4.80;;;15.70;99.90;;;;;;5114014;28;20521;-74
2022/10/29 00:43:18;;;;;;;9.50;4.90;;;15.90;99.90;;;;;;5114392;28;20203;-73
2022/10/29 00:45:51;;;;;;;13.90;6.23;;;16.00;99.90;;;;;;5096103;28;20556;-73
2022/10/29 00:48:18;;;;;;;11.23;5.30;;;16.10;99.90;;;;;;5096086;28;20422;-73
2022/10/29 00:50:46;;;;;;;7.27;5.23;;;16.00;99.90;;;;;;5114433;28;20451;-72
2022/10/29 00:56:37;;;;;;;19.63;5.40;;;15.70;99.90;;;;;;5033110;28;20780;-72
2022/10/29 00:59:06;;;;;;;12.90;4.97;;;15.60;99.90;;;;;;5032965;28;20438;-72
2022/10/29 01:01:31;;;;;;;23.00;5.37;;;15.70;99.90;;;;;;5033212;28;20401;-72
2022/10/29 01:03:59;;;;;;;13.40;4.60;;;15.90;99.90;;;;;;5041436;28;20779;-72
2022/10/29 01:06:27;;;;;;;16.67;5.30;;;16.00;99.90;;;;;;5052655;28;20190;-72
2022/10/29 01:08:52;;;;;;;9.30;5.47;;;16.00;99.90;;;;;;5051884;28;20409;-73
2022/10/29 01:11:39;;;;;;;12.50;6.20;;;16.10;99.90;;;;;;5052920;28;20846;-72
2022/10/29 01:14:31;;;;;;;6.17;4.40;;;16.20;99.90;;;;;;5030734;28;20220;-73
2022/10/29 01:17:21;;;;;;;7.40;4.87;;;16.20;99.90;;;;;;5033072;28;20831;-73
2022/10/29 01:20:24;;;;;;;10.80;5.57;;;16.20;99.90;;;;;;5032688;28;20386;-73
2022/10/29 01:23:10;;;;;;;13.63;5.10;;;16.10;99.90;;;;;;5032433;28;20774;-72
2022/10/29 01:26:02;;;;;;;8.20;4.50;;;16.10;99.90;;;;;;5032743;28;20874;-73
2022/10/29 01:29:06;;;;;;;7.10;4.80;;;16.20;99.90;;;;;;5032136;28;20405;-73
2022/10/29 01:31:36;;;;;;;9.27;4.40;;;16.20;99.90;;;;;;5001837;28;20413;-72
2022/10/29 01:34:33;;;;;;;8.17;4.70;;;16.20;99.90;;;;;;5031069;28;20428;-72
2022/10/29 01:37:18;;;;;;;10.63;5.20;;;16.20;99.90;;;;;;5032386;28;20387;-72
2022/10/29 01:39:56;;;;;;;8.73;5.10;;;16.30;99.90;;;;;;5031515;28;20377;-72
2022/10/29 01:42:35;;;;;;;13.37;5.30;;;16.40;99.90;;;;;;5047769;28;20410;-72
2022/10/29 01:45:20;;;;;;;11.57;5.70;;;16.40;99.90;;;;;;5072515;28;20456;-72
2022/10/29 01:48:12;;;;;;;12.80;5.57;;;16.40;99.90;;;;;;5072416;28;20414;-72
2022/10/29 01:50:42;;;;;;;10.07;4.57;;;16.40;99.90;;;;;;5036186;28;20496;-72
2022/10/29 01:53:08;;;;;;;9.43;5.47;;;16.40;99.90;;;;;;5071919;28;20420;-72
2022/10/29 01:55:34;;;;;;;8.43;5.40;;;16.40;99.90;;;;;;5072277;28;20731;-73
2022/10/29 01:58:02;;;;;;;7.43;5.17;;;16.30;99.90;;;;;;5071628;28;20537;-72
2022/10/29 02:00:51;;;;;;;6.57;4.67;;;16.20;99.90;;;;;;5072118;28;20814;-73
2022/10/29 02:03:44;;;;;;;9.10;5.60;;;16.20;99.90;;;;;;5042465;28;20412;-73
2022/10/29 02:06:31;;;;;;;6.97;4.27;;;16.20;99.90;;;;;;5051946;28;20440;-73
2022/10/29 02:09:14;;;;;;;9.03;5.17;;;16.10;99.90;;;;;;5050790;28;20419;-73
2022/10/29 02:12:07;;;;;;;11.13;6.23;;;16.10;99.90;;;;;;5051558;28;20402;-72
2022/10/29 02:14:39;;;;;;;10.20;6.10;;;16.00;99.90;;;;;;5071580;28;20556;-73
2022/10/29 02:17:06;;;;;;;9.87;4.70;;;15.90;99.90;;;;;;5071587;28;20393;-73
2022/10/29 02:19:33;;;;;;;11.93;5.30;;;15.90;99.90;;;;;;5071521;28;20419;-72
2022/10/29 02:21:58;;;;;;;10.20;5.67;;;16.00;99.90;;;;;;5071604;28;20421;-72
2022/10/29 02:24:24;;;;;;;8.70;5.17;;;16.00;99.90;;;;;;5071695;28;20864;-73
2022/10/29 02:26:50;;;;;;;11.83;5.63;;;16.00;99.90;;;;;;5071756;28;20165;-73
2022/10/29 02:29:16;;;;;;;10.23;6.43;;;15.90;99.90;;;;;;5071190;28;20935;-72
2022/10/29 02:31:42;;;;;;;8.37;5.80;;;15.90;99.90;;;;;;5071544;28;20404;-72
2022/10/29 02:34:07;;;;;;;9.50;5.10;;;16.10;99.90;;;;;;5071402;28;20535;-73
2022/10/29 02:36:33;;;;;;;7.70;4.63;;;16.20;99.90;;;;;;5071227;28;20170;-73
2022/10/29 02:38:58;;;;;;;9.70;5.93;;;16.30;99.90;;;;;;5071970;28;20236;-74
2022/10/29 02:41:24;;;;;;;7.33;5.13;;;16.20;99.90;;;;;;5071679;28;20180;-73
2022/10/29 02:43:50;;;;;;;13.63;6.70;;;16.20;99.90;;;;;;5071036;28;20200;-72
2022/10/29 02:46:20;;;;;;;9.70;5.60;;;16.20;99.90;;;;;;5071548;28;20164;-72
2022/10/29 02:48:46;;;;;;;14.47;5.90;;;16.00;99.90;;;;;;5071435;28;20625;-72
2022/10/29 02:51:12;;;;;;;11.37;6.20;;;16.00;99.90;;;;;;5073346;28;20408;-72
2022/10/29 02:53:38;;;;;;;7.90;5.97;;;16.10;99.90;;;;;;5075087;28;20491;-72
2022/10/29 02:56:05;;;;;;;8.97;5.23;;;16.30;99.90;;;;;;5074804;28;20419;-71
2022/10/29 02:58:31;;;;;;;9.70;4.93;;;16.40;99.90;;;;;;5074492;28;20205;-73
2022/10/29 03:00:56;;;;;;;5.90;4.57;;;16.40;99.90;;;;;;5075033;28;20534;-72
2022/10/29 03:03:23;;;;;;;8.17;5.20;;;16.40;99.90;;;;;;5075078;28;20307;-72
2022/10/29 03:05:48;;;;;;;8.13;5.80;;;16.50;99.90;;;;;;5074907;28;20174;-73
2022/10/29 03:08:14;;;;;;;9.60;5.27;;;16.50;99.90;;;;;;5074617;28;20410;-72
2022/10/29 03:10:40;;;;;;;8.93;6.13;;;16.30;99.90;;;;;;5074467;28;20196;-72
2022/10/29 03:13:05;;;;;;;9.50;5.50;;;16.20;99.90;;;;;;5072700;28;20604;-72
2022/10/29 03:15:31;;;;;;;12.33;5.53;;;16.30;99.90;;;;;;5075297;28;20643;-72
2022/10/29 03:17:56;;;;;;;9.00;4.83;;;16.20;99.90;;;;;;5075220;28;20181;-73
2022/10/29 03:20:22;;;;;;;10.50;5.93;;;16.20;99.90;;;;;;5076033;28;20215;-72
2022/10/29 03:22:47;;;;;;;10.27;5.63;;;16.40;99.90;;;;;;5076657;28;20205;-73
2022/10/29 03:25:13;;;;;;;9.57;5.20;;;16.50;99.90;;;;;;5075255;28;20189;-72
2022/10/29 03:27:42;;;;;;;6.90;5.40;;;16.50;99.90;;;;;;5075055;28;20173;-73
2022/10/29 03:30:10;;;;;;;7.87;6.00;;;16.50;99.90;;;;;;5074223;28;20534;-72
2022/10/29 03:32:43;;;;;;;9.57;5.60;;;16.40;99.90;;;;;;5074193;28;20415;-72
2022/10/29 03:35:10;;;;;;;7.83;4.53;;;16.30;99.90;;;;;;5074169;28;20503;-73
2022/10/29 03:37:36;;;;;;;8.90;5.40;;;16.30;99.90;;;;;;5074049;28;20421;-73
2022/10/29 03:40:02;;;;;;;8.50;5.90;;;16.30;99.90;;;;;;5074226;28;20416;-73
2022/10/29 03:42:30;;;;;;;6.57;4.90;;;16.40;99.90;;;;;;5073830;28;20534;-72
2022/10/29 03:44:56;;;;;;;11.67;6.07;;;16.40;99.90;;;;;;5073742;28;20508;-72
2022/10/29 03:47:22;;;;;;;9.50;5.77;;;16.40;99.90;;;;;;5069687;28;20900;-73
2022/10/29 03:49:47;;;;;;;9.43;5.43;;;16.30;99.90;;;;;;5053862;28;20460;-72
2022/10/29 03:52:13;;;;;;;11.83;6.40;;;16.30;99.90;;;;;;5054066;28;20184;-72
2022/10/29 03:54:38;;;;;;;6.07;5.47;;;16.20;99.90;;;;;;5054275;28;20273;-72
2022/10/29 03:57:04;;;;;;;7.97;4.90;;;16.20;99.90;;;;;;5053430;28;20201;-71
2022/10/29 03:59:29;;;;;;;7.17;4.93;;;16.20;99.90;;;;;;5053295;28;20170;-72
2022/10/29 04:01:55;;;;;;;6.23;4.70;;;16.20;99.90;;;;;;5052862;28;20532;-72
2022/10/29 04:04:20;;;;;;;11.90;6.17;;;16.30;99.90;;;;;;5053816;28;20212;-72
2022/10/29 04:06:46;;;;;;;13.27;5.03;;;16.20;99.90;;;;;;5053828;28;20270;-73
2022/10/29 04:09:12;;;;;;;12.43;5.67;;;16.20;99.90;;;;;;5053657;28;20197;-72
2022/10/29 04:11:37;;;;;;;9.80;6.20;;;16.20;99.90;;;;;;5053664;28;20167;-72
2022/10/29 04:14:03;;;;;;;8.37;5.10;;;16.20;99.90;;;;;;5070289;28;20198;-72
2022/10/29 04:16:28;;;;;;;12.30;6.33;;;16.30;99.90;;;;;;5073696;28;20174;-73
2022/10/29 04:18:54;;;;;;;9.00;5.17;;;16.30;99.90;;;;;;5071945;28;20285;-71
2022/10/29 04:21:19;;;;;;;9.60;5.30;;;16.40;99.90;;;;;;5073209;28;20170;-72
2022/10/29 04:23:45;;;;;;;7.33;4.47;;;16.40;99.90;;;;;;5073193;28;20215;-72
2022/10/29 04:26:10;;;;;;;12.00;5.33;;;16.40;99.90;;;;;;5073166;28;20172;-72
2022/10/29 04:28:36;;;;;;;5.30;4.80;;;16.40;99.90;;;;;;5072805;28;20227;-72
2022/10/29 04:31:11;;;;;;;7.80;5.93;;;16.30;99.90;;;;;;5073198;28;20281;-72
2022/10/29 04:33:37;;;;;;;9.23;5.63;;;16.20;99.90;;;;;;5055118;28;20259;-71
2022/10/29 04:36:03;;;;;;;9.87;5.80;;;16.20;99.90;;;;;;5073670;28;20919;-73
2022/10/29 04:38:28;;;;;;;6.00;4.50;;;16.20;99.90;;;;;;5073114;28;20556;-72
2022/10/29 04:40:58;;;;;;;8.63;6.10;;;16.20;99.90;;;;;;5072937;28;20407;-73
2022/10/29 04:43:24;;;;;;;7.13;5.30;;;16.10;99.90;;;;;;5072389;28;20270;-72
2022/10/29 04:45:54;;;;;;;10.43;6.20;;;16.10;99.90;;;;;;5073091;28;20744;-73
2022/10/29 04:48:20;;;;;;;13.53;5.90;;;16.10;99.90;;;;;;5073164;28;20775;-72
2022/10/29 04:50:47;;;;;;;8.97;5.70;;;16.10;99.90;;;;;;5072989;28;20461;-73
2022/10/29 04:53:13;;;;;;;10.00;5.87;;;15.90;99.90;;;;;;5072693;28;20422;-73
2022/10/29 04:55:39;;;;;;;7.07;5.53;;;15.80;99.90;;;;;;5072848;28;20473;-72
2022/10/29 04:58:05;;;;;;;18.37;6.90;;;15.80;99.90;;;;;;5072195;28;20389;-72
2022/10/29 05:00:31;;;;;;;13.47;5.93;;;15.50;99.90;;;;;;5072944;28;20191;-73
2022/10/29 05:02:57;;;;;;;11.70;6.20;;;15.30;99.90;;;;;;5072857;28;20406;-72
2022/10/29 05:05:23;;;;;;;11.70;6.40;;;15.40;99.90;;;;;;5072663;28;20484;-72
2022/10/29 05:07:48;;;;;;;10.30;6.60;;;15.50;99.90;;;;;;5072811;28;20178;-72
2022/10/29 05:10:14;;;;;;;11.50;6.80;;;15.50;99.90;;;;;;5072981;28;20190;-73
2022/10/29 05:12:40;;;;;;;9.67;6.37;;;15.50;99.90;;;;;;5070501;28;20165;-72
2022/10/29 05:15:06;;;;;;;12.30;6.90;;;15.40;99.90;;;;;;5052366;28;20185;-72
2022/10/29 05:17:36;;;;;;;10.80;6.37;;;15.40;99.90;;;;;;5053058;28;20257;-72
2022/10/29 05:20:02;;;;;;;10.83;7.00;;;15.40;99.90;;;;;;5052556;28;20391;-72
2022/10/29 05:22:27;;;;;;;8.33;5.80;;;15.40;99.90;;;;;;5052389;28;20790;-72
2022/10/29 05:24:53;;;;;;;9.80;6.93;;;15.30;99.90;;;;;;5052074;28;20196;-72
2022/10/29 05:27:19;;;;;;;12.90;6.43;;;15.40;99.90;;;;;;5052051;28;20174;-73
2022/10/29 05:29:44;;;;;;;7.83;5.47;;;15.30;99.90;;;;;;5051644;28;20639;-73
2022/10/29 05:32:10;;;;;;;11.83;6.57;;;15.20;99.90;;;;;;5052341;28;20165;-73
2022/10/29 05:34:35;;;;;;;11.80;6.90;;;15.10;99.90;;;;;;5052195;28;20245;-73
2022/10/29 05:37:01;;;;;;;10.60;6.73;;;15.00;99.90;;;;;;5052294;28;20260;-72
2022/10/29 05:39:26;;;;;;;11.90;7.10;;;15.00;99.90;;;;;;5052324;28;20646;-73
2022/10/29 05:41:52;;;;;;;7.63;5.70;;;14.90;99.90;;;;;;5065800;28;20191;-73
2022/10/29 05:44:17;;;;;;;11.53;5.90;;;14.90;99.90;;;;;;5071638;28;20558;-71
2022/10/29 05:46:43;;;;;;;11.00;6.43;;;14.90;99.90;;;;;;5071855;28;20169;-72
2022/10/29 05:49:11;;;;;;;17.83;6.40;;;14.90;99.90;;;;;;5070735;28;20205;-73
2022/10/29 05:51:36;;;;;;;8.87;6.47;;;14.80;99.90;;;;;;5072375;28;20176;-73
2022/10/29 05:54:02;;;;;;;7.90;6.57;;;14.90;99.90;;;;;;5072048;28;20418;-72
2022/10/29 05:56:27;;;;;;;8.60;6.27;;;15.00;99.90;;;;;;5052027;28;20548;-73
2022/10/29 05:58:53;;;;;;;10.53;6.40;;;15.00;99.90;;;;;;5051570;28;20473;-72
2022/10/29 06:01:18;;;;;;;12.53;6.60;;;15.00;99.90;;;;;;5052172;28;20228;-72
2022/10/29 06:03:44;;;;;;;8.87;6.27;;;14.90;99.90;;;;;;5051601;28;20207;-72
2022/10/29 06:06:10;;;;;;;10.70;6.00;;;14.70;99.90;;;;;;5033860;28;20174;-73
2022/10/29 06:08:36;;;;;;;10.20;6.00;;;14.80;99.90;;;;;;5051780;28;20491;-73
2022/10/29 06:11:02;;;;;;;8.33;6.80;;;14.80;99.90;;;;;;5051916;28;21028;-73
2022/10/29 06:13:28;;;;;;;10.53;6.40;;;14.90;99.90;;;;;;5057588;28;20661;-73
2022/10/29 06:15:57;;;;;;;10.53;6.30;;;14.90;99.90;;;;;;5071866;28;20403;-73
2022/10/29 06:18:22;;;;;;;12.20;5.90;;;14.80;99.90;;;;;;5072055;28;20256;-73
2022/10/29 06:20:48;;;;;;;9.53;7.00;;;14.80;99.90;;;;;;5072114;28;20794;-73
2022/10/29 06:23:14;;;;;;;7.60;6.10;;;14.70;99.90;;;;;;5071709;28;20204;-73
2022/10/29 06:25:39;;;;;;;9.00;6.27;;;14.80;99.90;;;;;;5074180;28;20255;-73
2022/10/29 06:28:07;;;;;;;14.83;7.70;;;14.80;99.90;;;;;;5076046;28;20567;-73
2022/10/29 06:30:35;;;;;;;8.03;5.80;;;14.80;99.90;;;;;;5075234;28;20251;-73
2022/10/29 06:33:02;;;;;;;10.27;7.03;;;14.90;99.90;;;;;;5075623;28;20399;-72
2022/10/29 06:35:28;;;;;;;11.53;6.27;;;14.90;99.90;;;;;;5075629;28;20411;-73
2022/10/29 06:37:54;;;;;;;9.80;6.30;;;14.80;99.90;;;;;;5075708;28;20404;-72
2022/10/29 06:40:19;;;;;;;8.50;5.80;;;14.80;99.90;;;;;;5069972;28;20462;-72
2022/10/29 06:42:45;;;;;;;8.10;5.50;;;14.80;99.90;;;;;;5055145;28;20191;-73
2022/10/29 06:45:11;;;;;;;8.77;5.90;;;14.90;99.90;;;;;;5074636;28;20252;-72
2022/10/29 06:47:41;;;;;;;7.43;6.00;;;14.80;99.90;;;;;;5076069;28;20167;-73
2022/10/29 06:50:08;;;;;;;13.03;7.13;;;14.80;99.90;;;;;;5075753;28;20545;-73
2022/10/29 06:52:34;;;;;;;9.97;6.90;;;14.70;99.90;;;;;;5075446;28;20833;-73
2022/10/29 06:55:01;;;;;;;10.63;6.20;;;14.80;99.90;;;;;;5075390;28;20473;-72
2022/10/29 06:57:27;;;;;;;7.50;5.37;;;14.80;99.90;;;;;;5075165;28;20466;-74
2022/10/29 06:59:53;;;;;;;13.40;6.60;;;14.80;99.90;;;;;;5074583;28;20488;-73
2022/10/29 07:02:20;;;;;;;7.23;6.43;;;14.90;99.90;;;;;;5075457;28;20526;-72
2022/10/29 07:04:46;;;;;;;9.13;6.27;;;15.00;99.90;;;;;;5074818;28;20196;-73
2022/10/29 07:07:12;;;;;;;8.60;6.60;;;15.10;99.90;;;;;;5075312;28;20760;-73
2022/10/29 07:09:37;;;;;;;9.00;6.40;;;15.10;99.90;;;;;;5074543;28;20271;-72
2022/10/29 07:12:03;;;;;;;12.63;7.00;;;15.00;99.90;;;;;;5074678;28;20180;-72
2022/10/29 07:14:28;;;;;;;7.37;5.63;;;15.00;99.90;;;;;;5073234;28;20202;-74
2022/10/29 07:16:54;;;;;;;15.17;6.37;;;15.00;99.90;;;;;;5075001;28;20181;-73
2022/10/29 07:19:19;;;;;;;9.70;6.50;;;15.10;99.90;;;;;;5074756;28;20209;-73
2022/10/29 07:21:45;;;;;;;10.13;6.30;;;15.10;99.90;;;;;;5074898;28;20186;-73
2022/10/29 07:24:10;;;;;;;9.43;6.17;;;15.20;99.90;;;;;;5074490;28;20230;-73
2022/10/29 07:26:36;;;;;;;14.73;6.33;;;15.30;99.90;;;;;;5075047;28;20521;-73
2022/10/29 07:29:02;;;;;;;11.00;6.37;;;15.40;99.90;;;;;;5073824;28;20254;-72
2022/10/29 07:31:29;;;;;;;11.70;5.83;;;15.50;99.90;;;;;;5074819;28;20175;-73
2022/10/29 07:33:55;;;;;;;7.10;5.07;;;15.60;99.90;;;;;;5056462;28;20435;-74
2022/10/29 07:36:21;;;;;;;11.90;6.37;;;15.70;99.90;;;;;;5074672;28;20957;-72
2022/10/29 07:38:47;;;;;;;15.43;6.03;;;15.70;99.90;;;;;;5073255;28;20537;-73
2022/10/29 07:41:13;;;;;;;7.30;5.87;;;15.80;99.90;;;;;;5074650;28;20412;-73
2022/10/29 07:43:38;;;;;;;7.90;6.07;;;16.00;99.90;;;;;;5074308;28;20640;-73
2022/10/29 07:46:04;;;;;;;7.80;5.20;;;16.10;99.90;;;;;;5073755;28;20169;-73
2022/10/29 07:48:30;;;;;;;8.07;5.30;;;16.20;99.90;;;;;;5074709;28;20173;-72
2022/10/29 07:51:00;;;;;;;9.37;5.10;;;16.30;99.90;;;;;;5074013;28;20277;-73
2022/10/29 07:53:26;;;;;;;11.53;6.43;;;16.40;99.90;;;;;;5073025;28;20242;-72
2022/10/29 07:55:53;;;;;;;8.70;5.50;;;16.40;99.90;;;;;;5074032;28;20426;-72
2022/10/29 07:58:18;;;;;;;9.47;5.37;;;16.60;99.90;;;;;;5070120;28;20402;-74
2022/10/29 08:00:44;;;;;;;8.53;5.17;;;16.70;99.90;;;;;;5048692;28;20422;-73
2022/10/29 08:03:11;;;;;;;7.47;5.80;;;16.80;99.90;;;;;;5034006;28;20517;-71
2022/10/29 08:05:37;;;;;;;12.43;6.80;;;16.90;99.90;;;;;;5033773;28;20212;-75
2022/10/29 08:08:03;;;;;;;11.97;7.70;;;17.00;99.90;;;;;;5033649;28;20409;-74
2022/10/29 08:10:29;;;;;;;8.90;6.53;;;17.10;99.90;;;;;;5033951;28;20191;-73
2022/10/29 08:12:58;;;;;;;10.50;6.70;;;17.30;99.90;;;;;;5034171;28;20174;-73
2022/10/29 08:15:25;;;;;;;11.57;7.40;;;17.40;99.90;;;;;;5067165;28;20435;-74
2022/10/29 08:17:50;;;;;;;9.13;7.00;;;17.80;99.90;;;;;;5074153;28;20399;-73
2022/10/29 08:20:17;;;;;;;11.60;7.57;;;18.10;99.90;;;;;;5073724;28;20416;-72
2022/10/29 08:22:43;;;;;;;10.90;7.00;;;18.40;99.90;;;;;;5073925;28;20289;-72
2022/10/29 08:25:10;;;;;;;11.77;7.13;;;18.30;99.90;;;;;;5073603;28;20975;-74
2022/10/29 08:27:36;;;;;;;20.47;8.80;;;18.10;99.90;;;;;;5073868;28;20162;-73
2022/10/29 08:30:02;;;;;;;9.23;7.17;;;17.90;99.90;;;;;;5072758;28;20948;-73
2022/10/29 08:32:28;;;;;;;8.30;5.80;;;17.80;99.90;;;;;;5073412;28;20491;-73
2022/10/29 08:34:55;;;;;;;13.03;6.70;;;18.00;99.90;;;;;;5073342;28;20428;-73
2022/10/29 08:37:20;;;;;;;14.00;7.20;;;18.10;99.90;;;;;;5073223;28;20738;-73
2022/10/29 08:39:46;;;;;;;9.23;6.30;;;18.30;99.90;;;;;;5073318;28;20447;-73
2022/10/29 08:42:26;;;;;;;9.90;6.07;;;18.50;99.90;;;;;;5072114;28;20197;-73
2022/10/29 08:45:08;;;;;;;10.63;6.80;;;18.40;99.90;;;;;;5072766;28;20194;-73
2022/10/29 08:48:05;;;;;;;11.00;6.80;;;18.50;99.90;;;;;;5073059;28;20381;-73
2022/10/29 08:50:39;;;;;;;13.40;7.33;;;18.60;99.90;;;;;;5035141;28;20460;-73
2022/10/29 08:53:14;;;;;;;12.27;6.33;;;18.90;99.90;;;;;;5073773;28;20380;-72
2022/10/29 08:55:39;;;;;;;10.20;7.30;;;19.00;99.90;;;;;;5072855;28;20420;-73
2022/10/29 08:58:27;;;;;;;11.47;8.17;;;18.80;99.90;;;;;;5073751;28;20423;-73
2022/10/29 09:00:55;;;;;;;11.27;6.60;;;18.90;99.90;;;;;;5072559;28;20665;-72
2022/10/29 09:03:22;;;;;;;11.17;6.00;;;18.80;99.90;;;;;;5072859;28;20436;-73
2022/10/29 09:06:06;;;;;;;12.13;6.80;;;18.70;99.90;;;;;;5073087;28;20396;-73
2022/10/29 09:08:51;;;;;;;10.50;6.90;;;18.90;99.90;;;;;;5072838;28;20772;-73
2022/10/29 09:11:32;;;;;;;10.83;7.30;;;18.80;99.90;;;;;;5072627;28;20983;-73
2022/10/29 09:14:39;;;;;;;13.63;7.10;;;18.80;99.90;;;;;;5070345;28;20522;-73
2022/10/29 09:17:22;;;;;;;15.50;8.50;;;18.90;99.90;;;;;;5072064;28;20423;-73
2022/10/29 09:20:24;;;;;;;11.83;7.50;;;18.90;99.90;;;;;;5073148;28;20416;-73
2022/10/29 09:23:24;;;;;;;16.30;7.63;;;18.90;99.90;;;;;;5071917;28;20454;-74
2022/10/29 09:26:16;;;;;;;15.87;8.13;;;19.00;99.90;;;;;;5055149;28;20459;-73
2022/10/29 09:28:45;;;;;;;20.70;8.53;;;19.30;99.90;;;;;;5064592;28;20427;-73
2022/10/29 09:31:39;;;;;;;12.10;7.90;;;19.50;99.90;;;;;;5072957;28;20498;-73
2022/10/29 09:34:12;;;;;;;13.63;8.03;;;19.70;99.90;;;;;;5061206;28;20449;-73
2022/10/29 09:36:38;;;;;;;16.20;8.20;;;19.70;99.90;;;;;;5053347;28;20421;-73
2022/10/29 09:39:19;;;;;;;15.03;8.70;;;19.90;99.90;;;;;;5053831;28;20444;-73
2022/10/29 09:41:45;;;;;;;12.53;7.93;;;20.10;99.90;;;;;;5053703;28;20454;-73
2022/10/29 09:44:23;;;;;;;15.73;8.60;;;20.20;99.90;;;;;;5057211;28;20436;-72
2022/10/29 09:47:17;;;;;;;14.90;8.27;;;20.00;99.90;;;;;;5072920;28;20820;-73
2022/10/29 09:50:15;;;;;;;9.80;7.20;;;20.10;99.90;;;;;;5058223;28;20484;-72
2022/10/29 09:52:44;;;;;;;13.17;7.90;;;20.10;99.90;;;;;;5032329;28;20390;-73
2022/10/29 09:55:19;;;;;;;11.13;6.87;;;20.10;99.90;;;;;;5032399;28;20433;-73
2022/10/29 09:57:45;;;;;;;13.23;7.07;;;20.30;99.90;;;;;;5043638;28;20948;-72
2022/10/29 10:00:27;;;;;;;14.50;7.40;;;20.30;99.90;;;;;;5052860;28;20433;-72
2022/10/29 10:02:56;;;;;;;15.13;7.20;;;20.60;99.90;;;;;;5056120;28;20436;-72
2022/10/29 10:05:30;;;;;;;14.40;6.87;;;20.70;99.90;;;;;;5056020;28;20478;-72
2022/10/29 10:08:25;;;;;;;12.03;7.47;;;20.90;99.90;;;;;;5056203;28;20469;-72
2022/10/29 10:10:59;;;;;;;15.43;8.27;;;21.00;99.90;;;;;;5062226;28;20460;-72
2022/10/29 10:13:33;;;;;;;13.03;8.63;;;21.30;99.90;;;;;;5056122;28;20824;-72
2022/10/29 10:16:01;;;;;;;13.13;7.27;;;21.50;99.90;;;;;;5073239;28;20427;-72
2022/10/29 10:18:30;;;;;;;9.60;6.60;;;21.60;99.90;;;;;;5077177;28;20896;-72
2022/10/29 10:21:22;;;;;;;9.80;6.93;;;21.70;99.90;;;;;;5076359;28;20893;-72
2022/10/29 10:23:53;;;;;;;9.00;6.20;;;21.80;99.90;;;;;;5075940;28;20428;-72
2022/10/29 10:26:41;;;;;;;13.50;6.50;;;21.80;99.90;;;;;;5076540;28;20422;-72
2022/10/29 10:29:17;;;;;;;16.17;6.53;;;21.90;99.90;;;;;;5075906;28;20436;-73
2022/10/29 10:31:45;;;;;;;12.50;7.10;;;21.90;99.90;;;;;;5075767;28;20392;-72
2022/10/29 10:34:26;;;;;;;10.77;6.37;;;21.90;99.90;;;;;;5075583;28;20478;-72
2022/10/29 10:36:54;;;;;;;9.97;6.93;;;22.00;99.90;;;;;;5076079;28;20388;-72
2022/10/29 10:39:25;;;;;;;12.57;7.30;;;22.10;99.90;;;;;;5075887;28;20450;-72
2022/10/29 10:41:51;;;;;;;11.03;7.03;;;22.30;99.90;;;;;;5075817;28;20403;-72
2022/10/29 10:44:19;;;;;;;14.83;5.70;;;22.60;99.90;;;;;;5075329;28;20601;-72
2022/10/29 10:46:46;;;;;;;12.20;6.13;;;22.70;99.90;;;;;;5075213;28;20485;-73
2022/10/29 10:49:28;;;;;;;11.00;5.40;;;23.40;99.90;;;;;;5075667;28;20495;-73
2022/10/29 10:51:55;;;;;;;17.03;6.23;;;25.40;99.90;;;;;;5075348;28;20427;-73
2022/10/29 10:54:31;;;;;;;10.60;6.57;;;27.20;99.90;;;;;;5075556;28;20431;-73
2022/10/29 10:57:03;;;;;;;11.70;6.20;;;28.10;99.10;;;;;;5075711;28;20416;-73
2022/10/29 10:59:53;;;;;;;12.10;5.73;;;28.60;97.90;;;;;;5075351;28;20423;-73
2022/10/29 11:02:34;;;;;;;8.23;5.80;;;29.40;96.30;;;;;;5073772;28;20499;-74
2022/10/29 11:05:23;;;;;;;6.60;4.70;;;30.30;94.30;;;;;;5075193;28;20801;-72
2022/10/29 11:08:09;;;;;;;11.77;5.50;;;30.90;93.70;;;;;;5075175;28;20408;-72
2022/10/29 11:11:02;;;;;;;12.97;5.23;;;31.30;91.50;;;;;;5073637;28;20952;-72
2022/10/29 11:13:30;;;;;;;7.37;5.17;;;32.10;90.70;;;;;;5066500;28;20814;-72
2022/10/29 11:15:59;;;;;;;11.17;5.73;;;33.10;86.80;;;;;;5073392;28;20539;-73
2022/10/29 11:18:38;;;;;;;6.20;4.60;;;33.60;83.30;;;;;;5073377;28;20550;-73
2022/10/29 11:21:18;;;;;;;12.53;5.13;;;34.20;81.60;;;;;;5074763;28;20858;-73
2022/10/29 11:24:07;;;;;;;13.07;11.83;;;34.60;81.50;;;;;;5074724;28;20991;-73
2022/10/29 11:26:41;;;;;;;7.07;4.90;;;34.40;81.20;;;;;;5074664;28;20393;-74
2022/10/29 11:29:17;;;;;;;6.77;4.63;;;34.80;80.10;;;;;;5074510;28;20764;-74
2022/10/29 11:31:59;;;;;;;7.23;4.57;;;35.10;78.40;;;;;;5074372;28;20401;-73
2022/10/29 11:34:33;;;;;;;6.13;5.00;;;35.70;78.40;;;;;;5073413;28;20972;-73
2022/10/29 11:37:36;;;;;;;7.17;5.33;;;36.30;71.60;;;;;;5074373;28;20395;-73
2022/10/29 11:40:11;;;;;;;8.00;5.27;;;36.60;69.10;;;;;;5074344;28;20396;-73
2022/10/29 11:42:38;;;;;;;10.57;4.77;;;36.80;67.40;;;;;;5073018;28;20424;-74
2022/10/29 11:45:04;;;;;;;14.63;5.90;;;37.00;71.00;;;;;;5074312;28;20507;-74
2022/10/29 11:47:57;;;;;;;7.63;5.40;;;37.10;66.40;;;;;;5074172;28;20416;-73
2022/10/29 11:50:58;;;;;;;8.20;4.83;;;37.10;66.20;;;;;;5061953;28;20437;-73
2022/10/29 11:53:38;;;;;;;11.73;5.17;;;37.00;67.50;;;;;;5054080;28;20419;-73
2022/10/29 11:56:20;;;;;;;10.30;4.83;;;37.00;66.30;;;;;;5053503;28;20417;-73
2022/10/29 11:59:01;;;;;;;8.43;4.60;;;36.10;68.00;;;;;;5054308;28;20412;-73
2022/10/29 12:01:56;;;;;;;11.73;4.53;;;36.20;69.90;;;;;;5053957;28;20746;-73
2022/10/29 12:04:44;;;;;;;9.17;5.20;;;36.50;69.40;;;;;;5053661;28;20976;-73
2022/10/29 12:07:34;;;;;;;9.50;5.07;;;36.30;69.00;;;;;;5036083;28;20407;-73
2022/10/29 12:10:34;;;;;;;9.20;4.80;;;37.00;66.80;;;;;;5053597;28;20790;-73
2022/10/29 12:13:13;;;;;;;7.50;5.20;;;37.00;64.70;;;;;;5032417;28;20412;-73
2022/10/29 12:15:50;;;;;;;12.60;4.80;;;37.60;62.90;;;;;;5052597;28;20841;-73
2022/10/29 12:18:31;;;;;;;10.60;5.23;;;37.60;64.10;;;;;;5073818;28;20905;-73
2022/10/29 12:21:24;;;;;;;9.20;4.80;;;37.80;62.40;;;;;;5074056;28;20726;-73
2022/10/29 12:24:04;;;;;;;10.80;5.50;;;37.70;63.80;;;;;;5072923;28;20465;-73
2022/10/29 12:26:47;;;;;;;7.70;5.67;;;37.60;64.10;;;;;;5074185;28;20388;-73
2022/10/29 12:29:27;;;;;;;9.57;5.60;;;37.60;61.60;;;;;;5074005;28;20380;-73
2022/10/29 12:31:59;;;;;;;9.03;6.17;;;37.20;61.50;;;;;;5073446;28;20415;-74
2022/10/29 12:34:32;;;;;;;11.93;10.37;;;37.00;62.70;;;;;;5073500;28;20766;-73
2022/10/29 12:37:11;;;;;;;11.77;8.60;;;36.10;64.20;;;;;;5073438;28;20396;-73
2022/10/29 12:39:44;;;;;;;9.00;5.97;;;35.10;69.00;;;;;;5073504;28;20526;-73
2022/10/29 12:42:21;;;;;;;9.47;5.40;;;33.80;73.60;;;;;;5060637;28;20516;-73
2022/10/29 12:45:15;;;;;;;10.03;4.70;;;33.00;75.80;;;;;;5039179;28;20493;-72
2022/10/29 12:48:02;;;;;;;14.20;5.70;;;31.70;79.20;;;;;;5073933;28;20855;-72
2022/10/29 12:50:40;;;;;;;8.27;4.90;;;31.20;82.00;;;;;;5055145;28;20495;-72
2022/10/29 12:53:25;;;;;;;8.07;5.13;;;31.10;82.40;;;;;;5073269;28;20423;-72
2022/10/29 12:55:52;;;;;;;8.90;4.43;;;30.90;84.40;;;;;;5050995;28;20476;-72
2022/10/29 12:58:42;;;;;;;9.17;4.33;;;30.70;84.40;;;;;;5052746;28;20504;-72
2022/10/29 13:01:25;;;;;;;12.30;4.90;;;30.70;85.60;;;;;;5052444;28;20635;-72
2022/10/29 13:03:54;;;;;;;8.10;4.90;;;31.40;84.90;;;;;;5052336;28;20425;-72
2022/10/29 13:06:41;;;;;;;8.83;4.30;;;31.40;84.40;;;;;;5052678;28;20643;-73
2022/10/29 13:09:23;;;;;;;6.73;3.60;;;31.30;84.70;;;;;;5052871;28;20496;-72